sensor_id;sensor_type;location;lat;lon;timestamp;P1;durP1;ratioP1;P2;durP2;ratioP2
78648;SDS011;67962;47.310;9.642;2023-03-23T00:01:04;4.97;;;2.78;;
78648;SDS011;67962;47.310;9.642;2023-03-23T00:03:31;5.82;;;2.10;;
78648;SDS011;67962;47.310;9.642;2023-03-23T00:05:59;5.03;;;1.85;;
78648;SDS011;67962;47.310;9.642;2023-03-23T00:08:27;3.75;;;2.00;;
78648;SDS011;67962;47.310;9.642;2023-03-23T00:10:53;5.97;;;2.30;;
78648;SDS011;67962;47.310;9.642;2023-03-23T00:13:25;4.82;;;2.50;;
78648;SDS011;67962;47.310;9.642;2023-03-23T00:15:52;6.15;;;2.25;;
78648;SDS011;67962;47.310;9.642;2023-03-23T00:18:21;3.00;;;1.90;;
78648;SDS011;67962;47.310;9.642;2023-03-23T00:20:50;2.78;;;1.80;;
78648;SDS011;67962;47.310;9.642;2023-03-23T00:23:19;3.40;;;2.00;;
78648;SDS011;67962;47.310;9.642;2023-03-23T00:25:49;3.22;;;2.00;;
78648;SDS011;67962;47.310;9.642;2023-03-23T00:28:21;3.83;;;2.05;;
78648;SDS011;67962;47.310;9.642;2023-03-23T00:31:00;7.40;;;1.85;;
78648;SDS011;67962;47.310;9.642;2023-03-23T00:33:29;3.72;;;1.90;;
78648;SDS011;67962;47.310;9.642;2023-03-23T00:35:58;5.15;;;1.95;;
78648;SDS011;67962;47.310;9.642;2023-03-23T00:38:24;5.22;;;1.95;;
78648;SDS011;67962;47.310;9.642;2023-03-23T00:40:50;3.33;;;2.08;;
78648;SDS011;67962;47.310;9.642;2023-03-23T00:43:17;2.88;;;2.10;;
78648;SDS011;67962;47.310;9.642;2023-03-23T00:45:44;3.08;;;2.08;;
78648;SDS011;67962;47.310;9.642;2023-03-23T00:48:18;3.55;;;2.10;;
78648;SDS011;67962;47.310;9.642;2023-03-23T00:50:44;4.95;;;2.30;;
78648;SDS011;67962;47.310;9.642;2023-03-23T00:53:10;5.68;;;2.40;;
78648;SDS011;67962;47.310;9.642;2023-03-23T00:55:36;5.28;;;2.10;;
78648;SDS011;67962;47.310;9.642;2023-03-23T00:58:02;3.85;;;2.20;;
78648;SDS011;67962;47.310;9.642;2023-03-23T01:00:28;4.07;;;2.33;;
78648;SDS011;67962;47.310;9.642;2023-03-23T01:02:54;4.85;;;2.17;;
78648;SDS011;67962;47.310;9.642;2023-03-23T01:05:19;3.90;;;2.38;;
78648;SDS011;67962;47.310;9.642;2023-03-23T01:07:45;3.55;;;2.53;;
78648;SDS011;67962;47.310;9.642;2023-03-23T01:10:12;6.65;;;2.92;;
78648;SDS011;67962;47.310;9.642;2023-03-23T01:12:41;4.57;;;2.28;;
78648;SDS011;67962;47.310;9.642;2023-03-23T01:15:08;5.07;;;2.17;;
78648;SDS011;67962;47.310;9.642;2023-03-23T01:17:34;5.53;;;2.45;;
78648;SDS011;67962;47.310;9.642;2023-03-23T01:20:00;4.40;;;2.33;;
78648;SDS011;67962;47.310;9.642;2023-03-23T01:22:26;3.90;;;2.20;;
78648;SDS011;67962;47.310;9.642;2023-03-23T01:24:51;6.82;;;2.30;;
78648;SDS011;67962;47.310;9.642;2023-03-23T01:27:17;4.50;;;2.45;;
78648;SDS011;67962;47.310;9.642;2023-03-23T01:29:43;4.47;;;2.28;;
78648;SDS011;67962;47.310;9.642;2023-03-23T01:32:08;4.35;;;2.50;;
78648;SDS011;67962;47.310;9.642;2023-03-23T01:34:34;3.78;;;2.10;;
78648;SDS011;67962;47.310;9.642;2023-03-23T01:37:01;4.45;;;2.50;;
78648;SDS011;67962;47.310;9.642;2023-03-23T01:39:26;4.90;;;2.35;;
78648;SDS011;67962;47.310;9.642;2023-03-23T01:41:52;5.22;;;2.40;;
78648;SDS011;67962;47.310;9.642;2023-03-23T01:46:44;3.72;;;2.60;;
78648;SDS011;67962;47.310;9.642;2023-03-23T01:49:11;5.72;;;2.78;;
78648;SDS011;67962;47.310;9.642;2023-03-23T01:52:04;4.03;;;2.63;;
78648;SDS011;67962;47.310;9.642;2023-03-23T01:54:33;4.68;;;2.70;;
78648;SDS011;67962;47.310;9.642;2023-03-23T01:57:01;5.13;;;2.75;;
78648;SDS011;67962;47.310;9.642;2023-03-23T01:59:31;4.35;;;2.50;;
78648;SDS011;67962;47.310;9.642;2023-03-23T02:01:58;4.13;;;2.55;;
78648;SDS011;67962;47.310;9.642;2023-03-23T02:04:26;3.67;;;2.30;;
78648;SDS011;67962;47.310;9.642;2023-03-23T02:06:54;7.35;;;2.83;;
78648;SDS011;67962;47.310;9.642;2023-03-23T02:09:22;8.75;;;2.85;;
78648;SDS011;67962;47.310;9.642;2023-03-23T02:11:51;5.60;;;2.72;;
78648;SDS011;67962;47.310;9.642;2023-03-23T02:14:19;4.75;;;3.03;;
78648;SDS011;67962;47.310;9.642;2023-03-23T02:35:49;5.30;;;2.72;;
78648;SDS011;67962;47.310;9.642;2023-03-23T02:38:20;4.72;;;2.95;;
78648;SDS011;67962;47.310;9.642;2023-03-23T02:40:52;3.92;;;2.83;;
78648;SDS011;67962;47.310;9.642;2023-03-23T02:43:22;4.63;;;2.72;;
78648;SDS011;67962;47.310;9.642;2023-03-23T02:45:50;7.47;;;2.75;;
78648;SDS011;67962;47.310;9.642;2023-03-23T02:48:18;5.28;;;2.70;;
78648;SDS011;67962;47.310;9.642;2023-03-23T02:50:48;4.85;;;2.85;;
78648;SDS011;67962;47.310;9.642;2023-03-23T02:53:18;4.38;;;2.88;;
78648;SDS011;67962;47.310;9.642;2023-03-23T02:55:49;7.75;;;2.92;;
78648;SDS011;67962;47.310;9.642;2023-03-23T02:58:17;5.40;;;2.83;;
78648;SDS011;67962;47.310;9.642;2023-03-23T03:00:44;3.83;;;2.55;;
78648;SDS011;67962;47.310;9.642;2023-03-23T03:03:14;4.63;;;3.05;;
78648;SDS011;67962;47.310;9.642;2023-03-23T03:11:11;6.45;;;3.10;;
78648;SDS011;67962;47.310;9.642;2023-03-23T03:18:47;7.35;;;3.33;;
78648;SDS011;67962;47.310;9.642;2023-03-23T03:21:23;4.95;;;3.05;;
78648;SDS011;67962;47.310;9.642;2023-03-23T03:23:53;3.60;;;2.95;;
78648;SDS011;67962;47.310;9.642;2023-03-23T03:26:21;6.20;;;2.72;;
78648;SDS011;67962;47.310;9.642;2023-03-23T03:28:52;8.80;;;2.90;;
78648;SDS011;67962;47.310;9.642;2023-03-23T03:31:20;4.90;;;2.60;;
78648;SDS011;67962;47.310;9.642;2023-03-23T03:33:58;4.45;;;2.65;;
78648;SDS011;67962;47.310;9.642;2023-03-23T03:36:27;5.38;;;2.50;;
78648;SDS011;67962;47.310;9.642;2023-03-23T03:39:00;4.22;;;2.60;;
78648;SDS011;67962;47.310;9.642;2023-03-23T03:41:29;3.47;;;2.83;;
78648;SDS011;67962;47.310;9.642;2023-03-23T03:43:55;6.90;;;3.05;;
78648;SDS011;67962;47.310;9.642;2023-03-23T03:46:21;5.13;;;2.80;;
78648;SDS011;67962;47.310;9.642;2023-03-23T03:48:47;7.97;;;2.67;;
78648;SDS011;67962;47.310;9.642;2023-03-23T03:51:12;6.65;;;2.80;;
78648;SDS011;67962;47.310;9.642;2023-03-23T03:53:38;4.93;;;2.63;;
78648;SDS011;67962;47.310;9.642;2023-03-23T03:56:04;5.15;;;2.38;;
78648;SDS011;67962;47.310;9.642;2023-03-23T03:58:30;5.28;;;2.72;;
78648;SDS011;67962;47.310;9.642;2023-03-23T04:01:00;4.60;;;2.60;;
78648;SDS011;67962;47.310;9.642;2023-03-23T04:03:26;7.07;;;2.40;;
78648;SDS011;67962;47.310;9.642;2023-03-23T04:05:55;3.42;;;2.28;;
78648;SDS011;67962;47.310;9.642;2023-03-23T04:08:24;4.00;;;2.15;;
78648;SDS011;67962;47.310;9.642;2023-03-23T04:10:51;7.03;;;3.13;;
78648;SDS011;67962;47.310;9.642;2023-03-23T04:13:18;5.15;;;2.78;;
78648;SDS011;67962;47.310;9.642;2023-03-23T04:15:45;6.07;;;2.42;;
78648;SDS011;67962;47.310;9.642;2023-03-23T04:18:12;5.25;;;2.65;;
78648;SDS011;67962;47.310;9.642;2023-03-23T04:20:40;3.58;;;2.42;;
78648;SDS011;67962;47.310;9.642;2023-03-23T04:23:07;4.38;;;2.60;;
78648;SDS011;67962;47.310;9.642;2023-03-23T04:25:33;6.07;;;2.40;;
78648;SDS011;67962;47.310;9.642;2023-03-23T04:28:00;3.55;;;2.65;;
78648;SDS011;67962;47.310;9.642;2023-03-23T04:30:26;3.88;;;2.40;;
78648;SDS011;67962;47.310;9.642;2023-03-23T04:32:54;6.07;;;2.53;;
78648;SDS011;67962;47.310;9.642;2023-03-23T04:35:21;6.38;;;2.60;;
78648;SDS011;67962;47.310;9.642;2023-03-23T04:37:54;6.40;;;2.88;;
78648;SDS011;67962;47.310;9.642;2023-03-23T04:40:20;4.03;;;2.42;;
78648;SDS011;67962;47.310;9.642;2023-03-23T04:42:47;5.53;;;2.90;;
78648;SDS011;67962;47.310;9.642;2023-03-23T04:45:14;9.85;;;3.42;;
78648;SDS011;67962;47.310;9.642;2023-03-23T04:47:46;10.85;;;3.97;;
78648;SDS011;67962;47.310;9.642;2023-03-23T04:50:19;7.03;;;3.30;;
78648;SDS011;67962;47.310;9.642;2023-03-23T04:52:49;5.88;;;3.00;;
78648;SDS011;67962;47.310;9.642;2023-03-23T04:55:16;4.45;;;2.65;;
78648;SDS011;67962;47.310;9.642;2023-03-23T04:57:43;8.82;;;3.28;;
78648;SDS011;67962;47.310;9.642;2023-03-23T05:00:09;4.25;;;2.72;;
78648;SDS011;67962;47.310;9.642;2023-03-23T05:02:41;5.13;;;3.00;;
78648;SDS011;67962;47.310;9.642;2023-03-23T05:05:08;8.38;;;3.28;;
78648;SDS011;67962;47.310;9.642;2023-03-23T05:07:40;9.80;;;3.42;;
78648;SDS011;67962;47.310;9.642;2023-03-23T05:10:06;8.75;;;3.53;;
78648;SDS011;67962;47.310;9.642;2023-03-23T05:12:34;5.45;;;2.63;;
78648;SDS011;67962;47.310;9.642;2023-03-23T05:14:59;5.38;;;3.00;;
78648;SDS011;67962;47.310;9.642;2023-03-23T05:17:25;4.35;;;3.15;;
78648;SDS011;67962;47.310;9.642;2023-03-23T05:19:52;5.65;;;2.70;;
78648;SDS011;67962;47.310;9.642;2023-03-23T05:22:18;7.95;;;3.08;;
78648;SDS011;67962;47.310;9.642;2023-03-23T05:24:46;4.43;;;2.88;;
78648;SDS011;67962;47.310;9.642;2023-03-23T05:27:12;7.47;;;3.13;;
78648;SDS011;67962;47.310;9.642;2023-03-23T05:29:40;7.13;;;3.20;;
78648;SDS011;67962;47.310;9.642;2023-03-23T05:32:06;4.93;;;2.85;;
78648;SDS011;67962;47.310;9.642;2023-03-23T05:34:33;6.05;;;3.45;;
78648;SDS011;67962;47.310;9.642;2023-03-23T05:37:00;6.15;;;3.10;;
78648;SDS011;67962;47.310;9.642;2023-03-23T05:39:27;6.80;;;3.80;;
78648;SDS011;67962;47.310;9.642;2023-03-23T05:41:54;5.00;;;3.65;;
78648;SDS011;67962;47.310;9.642;2023-03-23T05:44:20;7.22;;;3.65;;
78648;SDS011;67962;47.310;9.642;2023-03-23T05:46:46;9.57;;;5.18;;
78648;SDS011;67962;47.310;9.642;2023-03-23T05:49:13;6.50;;;3.85;;
78648;SDS011;67962;47.310;9.642;2023-03-23T05:51:41;7.97;;;3.80;;
78648;SDS011;67962;47.310;9.642;2023-03-23T05:54:09;6.38;;;3.63;;
78648;SDS011;67962;47.310;9.642;2023-03-23T05:56:35;9.45;;;4.18;;
78648;SDS011;67962;47.310;9.642;2023-03-23T05:59:01;11.88;;;3.97;;
78648;SDS011;67962;47.310;9.642;2023-03-23T06:01:27;10.73;;;3.90;;
78648;SDS011;67962;47.310;9.642;2023-03-23T06:03:53;6.20;;;4.03;;
78648;SDS011;67962;47.310;9.642;2023-03-23T06:06:24;6.78;;;4.22;;
78648;SDS011;67962;47.310;9.642;2023-03-23T06:08:54;9.20;;;4.28;;
78648;SDS011;67962;47.310;9.642;2023-03-23T06:11:21;6.75;;;4.10;;
78648;SDS011;67962;47.310;9.642;2023-03-23T06:13:48;8.65;;;3.95;;
78648;SDS011;67962;47.310;9.642;2023-03-23T06:16:14;13.55;;;4.40;;
78648;SDS011;67962;47.310;9.642;2023-03-23T06:18:40;6.70;;;4.05;;
78648;SDS011;67962;47.310;9.642;2023-03-23T06:21:07;10.93;;;4.68;;
78648;SDS011;67962;47.310;9.642;2023-03-23T06:23:34;10.73;;;3.80;;
78648;SDS011;67962;47.310;9.642;2023-03-23T06:26:01;6.05;;;3.80;;
78648;SDS011;67962;47.310;9.642;2023-03-23T06:28:28;9.30;;;4.63;;
78648;SDS011;67962;47.310;9.642;2023-03-23T06:30:54;13.50;;;6.10;;
78648;SDS011;67962;47.310;9.642;2023-03-23T06:33:20;11.65;;;4.95;;
78648;SDS011;67962;47.310;9.642;2023-03-23T06:35:46;12.85;;;5.68;;
78648;SDS011;67962;47.310;9.642;2023-03-23T06:38:13;11.52;;;5.65;;
78648;SDS011;67962;47.310;9.642;2023-03-23T06:40:39;8.57;;;3.63;;
78648;SDS011;67962;47.310;9.642;2023-03-23T06:43:04;8.30;;;3.88;;
78648;SDS011;67962;47.310;9.642;2023-03-23T06:45:30;5.88;;;3.90;;
78648;SDS011;67962;47.310;9.642;2023-03-23T06:47:56;6.25;;;3.45;;
78648;SDS011;67962;47.310;9.642;2023-03-23T06:50:22;8.10;;;3.47;;
78648;SDS011;67962;47.310;9.642;2023-03-23T06:52:48;7.20;;;2.88;;
78648;SDS011;67962;47.310;9.642;2023-03-23T06:55:16;5.97;;;2.80;;
78648;SDS011;67962;47.310;9.642;2023-03-23T06:57:43;5.45;;;2.72;;
78648;SDS011;67962;47.310;9.642;2023-03-23T07:00:10;4.35;;;2.58;;
78648;SDS011;67962;47.310;9.642;2023-03-23T07:02:39;4.55;;;2.70;;
78648;SDS011;67962;47.310;9.642;2023-03-23T07:05:05;5.97;;;2.58;;
78648;SDS011;67962;47.310;9.642;2023-03-23T07:07:32;10.63;;;2.60;;
78648;SDS011;67962;47.310;9.642;2023-03-23T07:09:58;3.83;;;2.50;;
78648;SDS011;67962;47.310;9.642;2023-03-23T07:12:23;5.60;;;2.65;;
78648;SDS011;67962;47.310;9.642;2023-03-23T07:14:49;3.55;;;2.30;;
78648;SDS011;67962;47.310;9.642;2023-03-23T07:17:15;5.57;;;2.65;;
78648;SDS011;67962;47.310;9.642;2023-03-23T07:19:41;6.00;;;2.50;;
78648;SDS011;67962;47.310;9.642;2023-03-23T07:22:07;3.25;;;2.50;;
78648;SDS011;67962;47.310;9.642;2023-03-23T07:24:33;4.72;;;2.40;;
78648;SDS011;67962;47.310;9.642;2023-03-23T07:27:00;4.00;;;2.33;;
78648;SDS011;67962;47.310;9.642;2023-03-23T07:29:26;5.88;;;2.42;;
78648;SDS011;67962;47.310;9.642;2023-03-23T07:31:52;5.78;;;2.53;;
78648;SDS011;67962;47.310;9.642;2023-03-23T07:34:19;8.35;;;2.70;;
78648;SDS011;67962;47.310;9.642;2023-03-23T07:36:45;5.35;;;2.67;;
78648;SDS011;67962;47.310;9.642;2023-03-23T07:39:11;7.57;;;2.80;;
78648;SDS011;67962;47.310;9.642;2023-03-23T07:41:38;6.93;;;2.83;;
78648;SDS011;67962;47.310;9.642;2023-03-23T07:44:04;5.63;;;2.95;;
78648;SDS011;67962;47.310;9.642;2023-03-23T07:46:32;11.00;;;2.78;;
78648;SDS011;67962;47.310;9.642;2023-03-23T07:48:59;7.35;;;3.10;;
78648;SDS011;67962;47.310;9.642;2023-03-23T07:51:29;10.38;;;2.80;;
78648;SDS011;67962;47.310;9.642;2023-03-23T07:53:55;7.93;;;2.90;;
78648;SDS011;67962;47.310;9.642;2023-03-23T07:56:21;6.25;;;3.22;;
78648;SDS011;67962;47.310;9.642;2023-03-23T07:58:48;5.00;;;3.13;;
78648;SDS011;67962;47.310;9.642;2023-03-23T08:01:14;11.32;;;3.35;;
78648;SDS011;67962;47.310;9.642;2023-03-23T08:03:41;4.60;;;2.60;;
78648;SDS011;67962;47.310;9.642;2023-03-23T08:06:07;9.80;;;2.80;;
78648;SDS011;67962;47.310;9.642;2023-03-23T08:08:34;5.75;;;2.33;;
78648;SDS011;67962;47.310;9.642;2023-03-23T08:11:02;5.93;;;2.42;;
78648;SDS011;67962;47.310;9.642;2023-03-23T08:13:28;6.07;;;2.58;;
78648;SDS011;67962;47.310;9.642;2023-03-23T08:15:54;5.72;;;2.70;;
78648;SDS011;67962;47.310;9.642;2023-03-23T08:18:20;5.25;;;2.20;;
78648;SDS011;67962;47.310;9.642;2023-03-23T08:20:46;3.40;;;2.20;;
78648;SDS011;67962;47.310;9.642;2023-03-23T08:23:12;5.97;;;2.33;;
78648;SDS011;67962;47.310;9.642;2023-03-23T08:25:40;5.72;;;2.40;;
78648;SDS011;67962;47.310;9.642;2023-03-23T08:28:08;2.67;;;1.95;;
78648;SDS011;67962;47.310;9.642;2023-03-23T08:30:34;4.85;;;2.42;;
78648;SDS011;67962;47.310;9.642;2023-03-23T08:33:02;6.40;;;2.13;;
78648;SDS011;67962;47.310;9.642;2023-03-23T08:35:30;3.58;;;2.25;;
78648;SDS011;67962;47.310;9.642;2023-03-23T08:37:55;5.25;;;2.42;;
78648;SDS011;67962;47.310;9.642;2023-03-23T08:40:22;4.00;;;2.70;;
78648;SDS011;67962;47.310;9.642;2023-03-23T08:42:49;3.25;;;2.45;;
78648;SDS011;67962;47.310;9.642;2023-03-23T08:45:20;5.72;;;2.88;;
78648;SDS011;67962;47.310;9.642;2023-03-23T08:47:47;3.65;;;2.50;;
78648;SDS011;67962;47.310;9.642;2023-03-23T08:50:17;4.65;;;2.70;;
78648;SDS011;67962;47.310;9.642;2023-03-23T08:52:45;5.80;;;2.72;;
78648;SDS011;67962;47.310;9.642;2023-03-23T08:55:12;5.18;;;2.60;;
78648;SDS011;67962;47.310;9.642;2023-03-23T08:57:38;4.95;;;2.20;;
78648;SDS011;67962;47.310;9.642;2023-03-23T09:00:06;6.25;;;2.53;;
78648;SDS011;67962;47.310;9.642;2023-03-23T09:02:41;9.30;;;2.20;;
78648;SDS011;67962;47.310;9.642;2023-03-23T09:05:08;5.18;;;2.63;;
78648;SDS011;67962;47.310;9.642;2023-03-23T09:07:36;5.63;;;2.28;;
78648;SDS011;67962;47.310;9.642;2023-03-23T09:10:03;6.72;;;2.58;;
78648;SDS011;67962;47.310;9.642;2023-03-23T09:12:29;9.27;;;2.58;;
78648;SDS011;67962;47.310;9.642;2023-03-23T09:14:55;6.07;;;2.60;;
78648;SDS011;67962;47.310;9.642;2023-03-23T09:17:21;5.90;;;2.42;;
78648;SDS011;67962;47.310;9.642;2023-03-23T09:19:46;4.15;;;2.70;;
78648;SDS011;67962;47.310;9.642;2023-03-23T09:22:12;5.03;;;2.85;;
78648;SDS011;67962;47.310;9.642;2023-03-23T09:24:40;5.90;;;3.10;;
78648;SDS011;67962;47.310;9.642;2023-03-23T09:27:06;10.48;;;3.30;;
78648;SDS011;67962;47.310;9.642;2023-03-23T09:29:31;5.78;;;2.85;;
78648;SDS011;67962;47.310;9.642;2023-03-23T09:31:57;6.60;;;3.05;;
78648;SDS011;67962;47.310;9.642;2023-03-23T09:34:23;9.05;;;3.60;;
78648;SDS011;67962;47.310;9.642;2023-03-23T09:36:48;6.95;;;3.30;;
78648;SDS011;67962;47.310;9.642;2023-03-23T09:39:15;5.65;;;3.10;;
78648;SDS011;67962;47.310;9.642;2023-03-23T09:50:16;5.78;;;2.97;;
78648;SDS011;67962;47.310;9.642;2023-03-23T09:52:55;4.05;;;2.55;;
78648;SDS011;67962;47.310;9.642;2023-03-23T09:55:26;4.63;;;2.42;;
78648;SDS011;67962;47.310;9.642;2023-03-23T09:57:58;14.05;;;2.83;;
78648;SDS011;67962;47.310;9.642;2023-03-23T10:00:32;4.65;;;2.55;;
78648;SDS011;67962;47.310;9.642;2023-03-23T10:05:41;6.65;;;3.70;;
78648;SDS011;67962;47.310;9.642;2023-03-23T10:08:15;12.77;;;3.78;;
78648;SDS011;67962;47.310;9.642;2023-03-23T10:16:03;6.13;;;4.00;;
78648;SDS011;67962;47.310;9.642;2023-03-23T10:18:44;6.63;;;4.20;;
78648;SDS011;67962;47.310;9.642;2023-03-23T10:21:31;8.45;;;4.60;;
78648;SDS011;67962;47.310;9.642;2023-03-23T10:24:02;9.43;;;4.40;;
78648;SDS011;67962;47.310;9.642;2023-03-23T10:31:59;7.85;;;4.70;;
78648;SDS011;67962;47.310;9.642;2023-03-23T10:39:50;7.43;;;4.00;;
78648;SDS011;67962;47.310;9.642;2023-03-23T10:42:23;13.00;;;4.32;;
78648;SDS011;67962;47.310;9.642;2023-03-23T10:44:51;15.02;;;4.53;;
78648;SDS011;67962;47.310;9.642;2023-03-23T10:47:18;11.48;;;4.38;;
78648;SDS011;67962;47.310;9.642;2023-03-23T10:49:45;7.85;;;4.70;;
78648;SDS011;67962;47.310;9.642;2023-03-23T10:57:46;10.70;;;5.43;;
78648;SDS011;67962;47.310;9.642;2023-03-23T11:00:25;10.80;;;4.68;;
78648;SDS011;67962;47.310;9.642;2023-03-23T11:05:35;10.52;;;5.20;;
78648;SDS011;67962;47.310;9.642;2023-03-23T11:08:10;11.35;;;4.68;;
78648;SDS011;67962;47.310;9.642;2023-03-23T11:10:39;14.77;;;5.32;;
78648;SDS011;67962;47.310;9.642;2023-03-23T11:13:14;12.43;;;5.60;;
78648;SDS011;67962;47.310;9.642;2023-03-23T11:15:43;10.15;;;4.97;;
78648;SDS011;67962;47.310;9.642;2023-03-23T11:21:04;12.15;;;4.50;;
78648;SDS011;67962;47.310;9.642;2023-03-23T11:23:35;8.18;;;4.18;;
78648;SDS011;67962;47.310;9.642;2023-03-23T11:26:24;10.52;;;3.70;;
78648;SDS011;67962;47.310;9.642;2023-03-23T11:31:35;9.68;;;4.32;;
78648;SDS011;67962;47.310;9.642;2023-03-23T11:34:04;7.15;;;3.38;;
78648;SDS011;67962;47.310;9.642;2023-03-23T11:36:31;6.50;;;4.07;;
78648;SDS011;67962;47.310;9.642;2023-03-23T11:39:23;13.73;;;4.70;;
78648;SDS011;67962;47.310;9.642;2023-03-23T11:41:48;9.60;;;4.20;;
78648;SDS011;67962;47.310;9.642;2023-03-23T11:44:14;8.50;;;3.55;;
78648;SDS011;67962;47.310;9.642;2023-03-23T11:49:30;7.53;;;3.80;;
78648;SDS011;67962;47.310;9.642;2023-03-23T11:52:29;8.07;;;3.85;;
78648;SDS011;67962;47.310;9.642;2023-03-23T11:55:30;7.05;;;4.03;;
78648;SDS011;67962;47.310;9.642;2023-03-23T11:58:04;11.30;;;3.67;;
78648;SDS011;67962;47.310;9.642;2023-03-23T12:00:39;6.50;;;3.85;;
78648;SDS011;67962;47.310;9.642;2023-03-23T12:34:17;8.13;;;3.33;;
78648;SDS011;67962;47.310;9.642;2023-03-23T12:40:10;6.13;;;2.80;;
78648;SDS011;67962;47.310;9.642;2023-03-23T12:49:06;6.65;;;2.72;;
78648;SDS011;67962;47.310;9.642;2023-03-23T12:51:42;6.30;;;3.10;;
78648;SDS011;67962;47.310;9.642;2023-03-23T12:54:13;5.18;;;2.63;;
78648;SDS011;67962;47.310;9.642;2023-03-23T12:59:17;4.22;;;2.55;;
78648;SDS011;67962;47.310;9.642;2023-03-23T13:01:51;5.55;;;2.30;;
78648;SDS011;67962;47.310;9.642;2023-03-23T13:04:23;3.75;;;2.45;;
78648;SDS011;67962;47.310;9.642;2023-03-23T13:06:55;5.72;;;2.22;;
78648;SDS011;67962;47.310;9.642;2023-03-23T13:12:10;4.35;;;2.13;;
78648;SDS011;67962;47.310;9.642;2023-03-23T13:17:16;3.97;;;2.20;;
78648;SDS011;67962;47.310;9.642;2023-03-23T13:22:49;4.60;;;2.00;;
78648;SDS011;67962;47.310;9.642;2023-03-23T13:25:30;3.80;;;1.95;;
78648;SDS011;67962;47.310;9.642;2023-03-23T13:28:03;3.25;;;2.10;;
78648;SDS011;67962;47.310;9.642;2023-03-23T13:30:31;5.70;;;2.00;;
78648;SDS011;67962;47.310;9.642;2023-03-23T13:33:06;5.35;;;1.63;;
78648;SDS011;67962;47.310;9.642;2023-03-23T13:35:38;3.85;;;2.08;;
78648;SDS011;67962;47.310;9.642;2023-03-23T13:38:13;8.07;;;1.90;;
78648;SDS011;67962;47.310;9.642;2023-03-23T13:40:49;3.65;;;1.73;;
78648;SDS011;67962;47.310;9.642;2023-03-23T13:43:24;2.55;;;1.90;;
78648;SDS011;67962;47.310;9.642;2023-03-23T13:45:52;2.97;;;1.70;;
78648;SDS011;67962;47.310;9.642;2023-03-23T13:48:22;3.13;;;1.88;;
78648;SDS011;67962;47.310;9.642;2023-03-23T13:50:56;5.68;;;2.05;;
78648;SDS011;67962;47.310;9.642;2023-03-23T13:53:28;4.45;;;1.70;;
78648;SDS011;67962;47.310;9.642;2023-03-23T13:58:49;6.28;;;2.00;;
78648;SDS011;67962;47.310;9.642;2023-03-23T14:01:32;6.25;;;1.60;;
78648;SDS011;67962;47.310;9.642;2023-03-23T14:04:00;4.53;;;1.70;;
78648;SDS011;67962;47.310;9.642;2023-03-23T14:06:33;3.47;;;1.80;;
78648;SDS011;67962;47.310;9.642;2023-03-23T14:12:06;8.45;;;2.00;;
78648;SDS011;67962;47.310;9.642;2023-03-23T14:14:54;3.03;;;1.70;;
78648;SDS011;67962;47.310;9.642;2023-03-23T14:17:26;3.15;;;1.75;;
78648;SDS011;67962;47.310;9.642;2023-03-23T14:19:56;3.08;;;1.67;;
78648;SDS011;67962;47.310;9.642;2023-03-23T14:24:52;8.45;;;1.80;;
78648;SDS011;67962;47.310;9.642;2023-03-23T14:27:35;2.85;;;1.50;;
78648;SDS011;67962;47.310;9.642;2023-03-23T14:30:05;4.25;;;1.30;;
78648;SDS011;67962;47.310;9.642;2023-03-23T14:32:33;5.18;;;1.20;;
78648;SDS011;67962;47.310;9.642;2023-03-23T14:35:01;2.92;;;1.40;;
78648;SDS011;67962;47.310;9.642;2023-03-23T14:37:32;6.78;;;1.70;;
78648;SDS011;67962;47.310;9.642;2023-03-23T14:40:00;3.38;;;1.45;;
78648;SDS011;67962;47.310;9.642;2023-03-23T14:42:30;6.13;;;1.33;;
78648;SDS011;67962;47.310;9.642;2023-03-23T14:44:59;4.70;;;1.67;;
78648;SDS011;67962;47.310;9.642;2023-03-23T14:47:30;3.30;;;1.63;;
78648;SDS011;67962;47.310;9.642;2023-03-23T14:49:59;3.47;;;1.70;;
78648;SDS011;67962;47.310;9.642;2023-03-23T14:52:32;2.63;;;1.23;;
78648;SDS011;67962;47.310;9.642;2023-03-23T14:55:12;3.53;;;1.42;;
78648;SDS011;67962;47.310;9.642;2023-03-23T14:57:41;4.75;;;1.60;;
78648;SDS011;67962;47.310;9.642;2023-03-23T15:00:11;1.67;;;1.30;;
78648;SDS011;67962;47.310;9.642;2023-03-23T15:02:52;5.18;;;1.50;;
78648;SDS011;67962;47.310;9.642;2023-03-23T15:05:31;5.78;;;1.40;;
78648;SDS011;67962;47.310;9.642;2023-03-23T15:08:02;2.75;;;1.42;;
78648;SDS011;67962;47.310;9.642;2023-03-23T15:10:30;2.22;;;1.55;;
78648;SDS011;67962;47.310;9.642;2023-03-23T15:12:56;3.00;;;1.42;;
78648;SDS011;67962;47.310;9.642;2023-03-23T15:17:56;5.13;;;1.60;;
78648;SDS011;67962;47.310;9.642;2023-03-23T15:20:24;2.05;;;1.40;;
78648;SDS011;67962;47.310;9.642;2023-03-23T15:22:50;3.13;;;1.50;;
78648;SDS011;67962;47.310;9.642;2023-03-23T15:25:19;3.10;;;1.60;;
78648;SDS011;67962;47.310;9.642;2023-03-23T15:27:55;3.85;;;1.48;;
78648;SDS011;67962;47.310;9.642;2023-03-23T15:30:47;3.17;;;1.40;;
78648;SDS011;67962;47.310;9.642;2023-03-23T15:33:14;3.72;;;1.50;;
78648;SDS011;67962;47.310;9.642;2023-03-23T15:35:45;6.07;;;1.60;;
78648;SDS011;67962;47.310;9.642;2023-03-23T15:38:28;4.20;;;1.88;;
78648;SDS011;67962;47.310;9.642;2023-03-23T15:41:00;2.13;;;1.30;;
78648;SDS011;67962;47.310;9.642;2023-03-23T15:43:34;3.08;;;1.60;;
78648;SDS011;67962;47.310;9.642;2023-03-23T15:48:51;7.97;;;1.75;;
78648;SDS011;67962;47.310;9.642;2023-03-23T15:51:21;5.55;;;1.90;;
78648;SDS011;67962;47.310;9.642;2023-03-23T15:53:52;5.45;;;2.00;;
78648;SDS011;67962;47.310;9.642;2023-03-23T15:56:19;4.90;;;1.75;;
78648;SDS011;67962;47.310;9.642;2023-03-23T15:58:45;4.45;;;1.70;;
78648;SDS011;67962;47.310;9.642;2023-03-23T16:01:13;3.65;;;1.70;;
78648;SDS011;67962;47.310;9.642;2023-03-23T16:03:49;4.30;;;1.80;;
78648;SDS011;67962;47.310;9.642;2023-03-23T16:06:17;3.33;;;1.80;;
78648;SDS011;67962;47.310;9.642;2023-03-23T16:08:44;2.40;;;1.70;;
78648;SDS011;67962;47.310;9.642;2023-03-23T16:11:13;5.45;;;1.60;;
78648;SDS011;67962;47.310;9.642;2023-03-23T16:13:41;2.92;;;1.58;;
78648;SDS011;67962;47.310;9.642;2023-03-23T16:16:15;3.22;;;1.40;;
78648;SDS011;67962;47.310;9.642;2023-03-23T16:18:42;5.63;;;1.70;;
78648;SDS011;67962;47.310;9.642;2023-03-23T16:21:08;4.05;;;1.98;;
78648;SDS011;67962;47.310;9.642;2023-03-23T16:23:34;3.83;;;1.95;;
78648;SDS011;67962;47.310;9.642;2023-03-23T16:26:00;4.82;;;2.00;;
78648;SDS011;67962;47.310;9.642;2023-03-23T16:28:26;4.70;;;1.90;;
78648;SDS011;67962;47.310;9.642;2023-03-23T16:30:52;4.68;;;1.95;;
78648;SDS011;67962;47.310;9.642;2023-03-23T16:33:17;7.55;;;1.88;;
78648;SDS011;67962;47.310;9.642;2023-03-23T16:35:43;5.47;;;2.00;;
78648;SDS011;67962;47.310;9.642;2023-03-23T16:38:11;4.80;;;1.73;;
78648;SDS011;67962;47.310;9.642;2023-03-23T16:40:40;4.80;;;1.98;;
78648;SDS011;67962;47.310;9.642;2023-03-23T16:43:06;8.23;;;2.08;;
78648;SDS011;67962;47.310;9.642;2023-03-23T16:45:32;2.42;;;1.80;;
78648;SDS011;67962;47.310;9.642;2023-03-23T16:47:58;4.97;;;1.70;;
78648;SDS011;67962;47.310;9.642;2023-03-23T16:50:26;3.38;;;1.80;;
78648;SDS011;67962;47.310;9.642;2023-03-23T16:52:54;6.57;;;1.70;;
78648;SDS011;67962;47.310;9.642;2023-03-23T16:55:20;6.15;;;2.17;;
78648;SDS011;67962;47.310;9.642;2023-03-23T16:57:46;4.00;;;2.00;;
78648;SDS011;67962;47.310;9.642;2023-03-23T17:00:13;6.95;;;2.20;;
78648;SDS011;67962;47.310;9.642;2023-03-23T17:02:44;5.47;;;2.50;;
78648;SDS011;67962;47.310;9.642;2023-03-23T17:05:11;4.30;;;2.60;;
78648;SDS011;67962;47.310;9.642;2023-03-23T17:07:38;4.03;;;2.67;;
78648;SDS011;67962;47.310;9.642;2023-03-23T17:10:06;5.15;;;2.53;;
78648;SDS011;67962;47.310;9.642;2023-03-23T17:12:33;7.43;;;3.95;;
78648;SDS011;67962;47.310;9.642;2023-03-23T17:15:00;11.15;;;3.85;;
78648;SDS011;67962;47.310;9.642;2023-03-23T17:17:26;5.25;;;2.60;;